createdAt,value
2023-10-13T00:01:40.191Z,14.00
2023-10-13T00:04:09.607Z,15.10
2023-10-13T00:06:38.629Z,15.45
2023-10-13T00:09:05.815Z,15.27
2023-10-13T00:11:32.952Z,14.45
2023-10-13T00:14:04.162Z,13.60
2023-10-13T00:16:32.168Z,13.13
2023-10-13T00:18:59.643Z,13.50
2023-10-13T00:21:32.827Z,13.32
2023-10-13T00:24:07.418Z,13.93
2023-10-13T00:26:37.582Z,14.38
2023-10-13T00:29:08.268Z,13.95
2023-10-13T00:31:42.024Z,15.38
2023-10-13T00:34:27.032Z,14.40
2023-10-13T00:37:17.743Z,14.85
2023-10-13T00:39:47.672Z,13.57
2023-10-13T00:42:20.523Z,13.27
2023-10-13T00:44:50.582Z,14.00
2023-10-13T00:47:38.774Z,13.32
2023-10-13T00:50:06.664Z,14.95
2023-10-13T00:52:36.497Z,14.85
2023-10-13T00:55:05.716Z,14.60
2023-10-13T00:57:34.519Z,12.02
2023-10-13T01:00:20.374Z,12.55
2023-10-13T01:02:56.805Z,11.40
2023-10-13T01:05:25.300Z,12.23
2023-10-13T01:07:55.861Z,11.20
2023-10-13T01:10:27.385Z,12.25
2023-10-13T01:12:57.668Z,12.10
2023-10-13T01:15:30.698Z,12.85
2023-10-13T01:18:13.552Z,12.45
2023-10-13T01:20:45.023Z,11.63
2023-10-13T01:23:25.695Z,11.90
2023-10-13T01:25:54.878Z,12.73
2023-10-13T01:28:23.059Z,12.63
2023-10-13T01:30:53.337Z,15.75
2023-10-13T01:33:28.438Z,18.02
2023-10-13T01:36:00.763Z,20.05
2023-10-13T01:38:28.415Z,25.50
2023-10-13T01:40:57.629Z,27.70
2023-10-13T01:43:25.377Z,32.72
2023-10-13T01:45:52.646Z,34.75
2023-10-13T01:48:22.441Z,37.50
2023-10-13T01:50:56.635Z,37.33
2023-10-13T01:53:24.012Z,37.53
2023-10-13T01:55:51.315Z,38.92
2023-10-13T01:58:23.715Z,37.20
2023-10-13T02:00:50.978Z,30.02
2023-10-13T02:03:18.613Z,26.75
2023-10-13T02:05:50.209Z,21.73
2023-10-13T02:08:25.745Z,22.58
2023-10-13T02:10:57.332Z,20.00
2023-10-13T02:13:27.165Z,19.40
2023-10-13T02:16:03.962Z,18.75
2023-10-13T02:18:44.241Z,18.63
2023-10-13T02:21:14.228Z,18.83
2023-10-13T02:24:00.661Z,17.85
2023-10-13T02:26:33.234Z,18.23
2023-10-13T02:29:06.017Z,16.20
2023-10-13T02:31:34.694Z,17.42
2023-10-13T02:34:07.072Z,17.88
2023-10-13T02:36:37.863Z,18.65
2023-10-13T02:39:09.009Z,21.60
2023-10-13T02:41:39.477Z,23.10
2023-10-13T02:44:07.637Z,26.58
2023-10-13T02:46:40.953Z,27.38
2023-10-13T02:49:11.916Z,26.83
2023-10-13T02:51:42.972Z,25.60
2023-10-13T02:54:11.797Z,26.73
2023-10-13T02:56:58.370Z,28.65
2023-10-13T02:59:41.691Z,30.83
2023-10-13T03:02:18.999Z,34.00
2023-10-13T03:04:48.615Z,36.92
2023-10-13T03:07:29.435Z,41.40
2023-10-13T03:10:01.498Z,42.30
2023-10-13T03:12:35.275Z,48.45
2023-10-13T03:15:18.680Z,49.38
2023-10-13T03:17:47.818Z,46.03
2023-10-13T03:20:17.203Z,48.90
2023-10-13T03:22:46.277Z,51.83
2023-10-13T03:25:24.116Z,49.08
2023-10-13T03:27:52.754Z,48.83
2023-10-13T03:30:22.069Z,50.78
2023-10-13T03:32:54.764Z,50.22
2023-10-13T03:35:25.562Z,47.10
2023-10-13T03:37:53.175Z,50.05
2023-10-13T03:40:21.208Z,53.17
2023-10-13T03:43:11.081Z,50.95
2023-10-13T03:45:48.844Z,45.05
2023-10-13T03:48:26.128Z,42.28
2023-10-13T03:51:04.512Z,38.90
2023-10-13T03:53:55.485Z,33.58
2023-10-13T03:56:31.160Z,26.58
2023-10-13T03:59:06.545Z,23.83
2023-10-13T04:01:55.090Z,22.17
2023-10-13T04:04:40.804Z,21.27
2023-10-13T04:07:11.183Z,20.58
2023-10-13T04:09:41.423Z,21.23
2023-10-13T04:12:27.768Z,19.33
2023-10-13T04:15:07.272Z,19.17
2023-10-13T04:17:41.485Z,24.55
2023-10-13T04:20:09.092Z,29.02
2023-10-13T04:22:49.939Z,41.13
2023-10-13T04:25:36.552Z,38.63
2023-10-13T04:28:14.146Z,45.90
2023-10-13T04:31:07.944Z,47.97
2023-10-13T04:33:35.156Z,45.17
2023-10-13T04:36:14.673Z,45.45
2023-10-13T04:38:58.107Z,45.67
2023-10-13T04:41:58.770Z,47.20
2023-10-13T04:44:44.867Z,45.40
2023-10-13T04:47:23.013Z,48.58
2023-10-13T04:49:51.179Z,45.05
2023-10-13T04:52:39.080Z,47.33
2023-10-13T04:55:34.009Z,46.78
2023-10-13T04:58:11.776Z,266.98
2023-10-13T05:01:17.150Z,23.38
2023-10-13T05:04:03.773Z,18.33
2023-10-13T05:06:42.873Z,19.17
2023-10-13T05:09:28.729Z,13.80
2023-10-13T05:12:14.767Z,11.90
2023-10-13T05:15:00.606Z,14.15
2023-10-13T05:17:46.743Z,17.70
2023-10-13T05:20:32.443Z,23.05
2023-10-13T05:23:18.269Z,29.05
2023-10-13T05:26:04.158Z,32.45
2023-10-13T05:28:49.882Z,34.97
2023-10-13T05:31:35.673Z,37.83
2023-10-13T05:34:21.864Z,37.03
2023-10-13T05:37:07.564Z,36.13
2023-10-13T05:39:53.332Z,37.00
2023-10-13T05:42:39.252Z,43.17
2023-10-13T05:45:18.630Z,49.60
2023-10-13T05:47:51.801Z,44.22
2023-10-13T05:50:22.407Z,47.22
2023-10-13T05:52:56.485Z,42.95
2023-10-13T05:55:44.811Z,42.20
2023-10-13T05:58:30.783Z,40.55
2023-10-13T06:01:16.999Z,35.08
2023-10-13T06:04:03.675Z,36.42
2023-10-13T06:06:49.678Z,35.47
2023-10-13T06:09:35.612Z,35.92
2023-10-13T06:12:21.665Z,37.50
2023-10-13T06:15:07.744Z,36.78
2023-10-13T06:17:53.794Z,37.00
2023-10-13T06:20:39.780Z,33.63
2023-10-13T06:23:25.648Z,32.10
2023-10-13T06:26:12.793Z,31.98
2023-10-13T06:28:43.550Z,30.00
2023-10-13T06:31:24.998Z,32.85
2023-10-13T06:33:52.633Z,33.05
2023-10-13T06:36:20.091Z,35.70
2023-10-13T06:38:56.038Z,36.17
2023-10-13T06:41:31.504Z,34.83
2023-10-13T06:44:01.799Z,33.78
2023-10-13T06:46:29.951Z,36.97
2023-10-13T06:49:00.579Z,31.38
2023-10-13T06:51:32.375Z,33.13
2023-10-13T06:54:01.308Z,20.48
2023-10-13T06:56:29.307Z,15.73
2023-10-13T06:59:00.451Z,22.58
2023-10-13T07:01:28.550Z,26.50
2023-10-13T07:04:02.152Z,19.92
2023-10-13T07:06:32.613Z,10.88
2023-10-13T07:09:05.549Z,15.45
2023-10-13T07:11:35.778Z,13.10
2023-10-13T07:14:21.157Z,12.73
2023-10-13T07:17:00.839Z,8.10
2023-10-13T07:19:31.353Z,5.78
2023-10-13T07:22:00.233Z,5.00
2023-10-13T07:24:32.987Z,5.30
2023-10-13T07:27:07.005Z,6.65
2023-10-13T07:29:37.769Z,5.57
2023-10-13T07:32:05.270Z,5.72
2023-10-13T07:34:33.484Z,5.50
2023-10-13T07:37:01.532Z,6.00
2023-10-13T07:39:35.306Z,6.75
2023-10-13T07:42:06.890Z,5.90
2023-10-13T07:44:34.782Z,8.70
2023-10-13T07:47:08.429Z,11.15
2023-10-13T07:49:40.234Z,16.08
2023-10-13T07:52:21.853Z,12.07
2023-10-13T07:55:01.426Z,7.53
2023-10-13T07:57:31.535Z,6.85
2023-10-13T08:00:09.727Z,6.53
2023-10-13T08:02:52.458Z,5.40
2023-10-13T08:05:30.692Z,5.00
2023-10-13T08:07:57.923Z,6.05
2023-10-13T08:10:28.261Z,4.97
2023-10-13T08:12:55.820Z,5.65
2023-10-13T08:15:32.631Z,5.03
2023-10-13T08:18:05.965Z,4.38
2023-10-13T08:20:39.320Z,4.75
2023-10-13T08:23:15.550Z,4.00
2023-10-13T08:26:01.367Z,5.00
2023-10-13T08:28:50.695Z,5.18
2023-10-13T08:31:27.081Z,4.85
2023-10-13T08:34:07.722Z,5.22
2023-10-13T08:36:39.128Z,9.25
2023-10-13T08:39:26.331Z,8.55
2023-10-13T08:42:13.307Z,7.07
2023-10-13T08:44:53.380Z,6.95
2023-10-13T08:47:21.883Z,6.78
2023-10-13T08:49:58.037Z,7.90
2023-10-13T08:52:43.898Z,9.60
2023-10-13T08:55:35.623Z,8.05
2023-10-13T08:58:15.475Z,9.52
2023-10-13T09:01:13.100Z,8.30
2023-10-13T09:03:43.263Z,9.50
2023-10-13T09:06:16.106Z,9.02
2023-10-13T09:09:02.382Z,9.57
2023-10-13T09:11:38.425Z,9.80
2023-10-13T09:14:30.208Z,10.35
2023-10-13T09:17:09.210Z,12.55
2023-10-13T09:19:59.209Z,12.75
2023-10-13T09:22:28.564Z,12.45
2023-10-13T09:24:59.512Z,12.23
2023-10-13T09:27:28.706Z,8.93
2023-10-13T09:30:19.579Z,7.72
2023-10-13T09:32:47.352Z,7.55
2023-10-13T09:35:20.640Z,7.97
2023-10-13T09:37:48.309Z,6.93
2023-10-13T09:40:34.779Z,7.72
2023-10-13T09:43:08.391Z,7.82
2023-10-13T09:46:06.158Z,8.73
2023-10-13T09:48:36.444Z,8.00
2023-10-13T09:51:08.062Z,9.00
2023-10-13T09:53:44.532Z,7.25
2023-10-13T09:56:28.079Z,7.47
2023-10-13T09:59:10.250Z,7.03
2023-10-13T10:01:51.398Z,7.15
2023-10-13T10:04:21.018Z,7.13
2023-10-13T10:06:55.447Z,6.82
2023-10-13T10:09:35.482Z,7.10
2023-10-13T10:12:29.805Z,6.70
2023-10-13T10:15:44.801Z,6.30
2023-10-13T10:18:23.319Z,7.85
2023-10-13T10:20:53.874Z,7.63
2023-10-13T10:23:37.215Z,7.43
2023-10-13T10:26:24.278Z,6.65
2023-10-13T10:28:51.558Z,6.20
2023-10-13T10:31:20.736Z,6.43
2023-10-13T10:33:51.704Z,6.25
2023-10-13T10:36:30.911Z,7.22
2023-10-13T10:39:01.935Z,6.05
2023-10-13T10:41:39.507Z,5.85
2023-10-13T10:44:31.960Z,6.72
2023-10-13T10:47:34.115Z,7.22
2023-10-13T10:50:08.691Z,6.05
2023-10-13T10:52:40.376Z,6.03
2023-10-13T10:55:15.044Z,7.95
2023-10-13T10:57:44.950Z,7.97
2023-10-13T11:00:22.039Z,7.18
2023-10-13T11:02:58.658Z,6.43
2023-10-13T11:05:33.361Z,6.72
2023-10-13T11:08:00.668Z,5.18
2023-10-13T11:10:28.948Z,5.72
2023-10-13T11:13:22.786Z,6.03
2023-10-13T11:15:51.663Z,6.18
2023-10-13T11:18:35.082Z,6.28
2023-10-13T11:21:07.923Z,6.22
2023-10-13T11:23:37.640Z,7.07
2023-10-13T11:26:06.254Z,6.60
2023-10-13T11:28:35.460Z,6.38
2023-10-13T11:31:11.914Z,6.82
2023-10-13T11:33:47.854Z,6.78
2023-10-13T11:36:20.465Z,7.53
2023-10-13T11:38:50.272Z,7.32
2023-10-13T11:41:21.067Z,7.53
2023-10-13T11:43:53.839Z,8.30
2023-10-13T11:46:39.178Z,7.68
2023-10-13T11:49:14.283Z,7.70
2023-10-13T11:51:52.029Z,6.60
2023-10-13T11:54:22.898Z,7.28
2023-10-13T11:56:51.133Z,7.60
2023-10-13T11:59:18.612Z,8.35
2023-10-13T12:02:05.959Z,7.85
2023-10-13T12:04:44.762Z,6.70
2023-10-13T12:07:21.309Z,7.63
2023-10-13T12:10:03.883Z,7.07
2023-10-13T12:12:41.387Z,6.45
2023-10-13T12:15:15.852Z,6.82
2023-10-13T12:17:46.254Z,7.32
2023-10-13T12:20:19.994Z,8.10
2023-10-13T12:22:56.575Z,6.70
2023-10-13T12:25:26.980Z,6.40
2023-10-13T12:27:58.118Z,6.90
2023-10-13T12:30:50.538Z,8.95
2023-10-13T12:33:25.375Z,6.32
2023-10-13T12:36:14.635Z,7.15
2023-10-13T12:38:48.236Z,6.78
2023-10-13T12:41:36.525Z,6.60
2023-10-13T12:44:24.819Z,7.85
2023-10-13T12:47:11.244Z,7.30
2023-10-13T12:49:45.158Z,8.38
2023-10-13T12:52:33.113Z,6.90
2023-10-13T12:55:07.568Z,6.65
2023-10-13T12:57:35.371Z,7.30
2023-10-13T13:00:18.179Z,7.30
2023-10-13T13:02:45.627Z,6.50
2023-10-13T13:05:13.370Z,6.43
2023-10-13T13:07:48.346Z,7.28
2023-10-13T13:10:16.334Z,7.05
2023-10-13T13:12:43.727Z,7.03
2023-10-13T13:15:12.803Z,7.15
2023-10-13T13:17:40.640Z,6.88
2023-10-13T13:20:29.177Z,6.03
2023-10-13T13:22:56.802Z,6.75
2023-10-13T13:25:31.116Z,6.75
2023-10-13T13:27:59.260Z,6.40
2023-10-13T13:30:34.014Z,7.03
2023-10-13T13:33:05.027Z,7.35
2023-10-13T13:35:36.015Z,6.55
2023-10-13T13:38:29.852Z,6.53
2023-10-13T13:40:57.179Z,6.88
2023-10-13T13:43:53.944Z,7.13
2023-10-13T13:46:28.806Z,6.28
2023-10-13T13:49:00.365Z,7.43
2023-10-13T13:51:33.003Z,7.18
2023-10-13T13:54:03.382Z,6.95
2023-10-13T13:56:39.220Z,7.65
2023-10-13T13:59:10.397Z,7.53
2023-10-13T14:01:38.580Z,7.03
2023-10-13T14:04:08.131Z,7.93
2023-10-13T14:06:36.102Z,7.18
2023-10-13T14:09:05.271Z,8.23
2023-10-13T14:11:39.600Z,8.60
2023-10-13T14:14:29.932Z,7.03
2023-10-13T14:17:18.343Z,7.72
2023-10-13T14:19:46.852Z,7.00
2023-10-13T14:22:14.436Z,9.27
2023-10-13T14:24:47.078Z,6.75
2023-10-13T14:27:20.181Z,8.38
2023-10-13T14:29:48.285Z,8.55
2023-10-13T14:32:16.735Z,7.70
2023-10-13T14:34:46.780Z,9.98
2023-10-13T14:37:14.306Z,8.15
2023-10-13T14:39:42.444Z,8.70
2023-10-13T14:42:09.708Z,8.00
2023-10-13T14:44:38.052Z,8.45
2023-10-13T14:47:10.237Z,7.95
2023-10-13T14:49:37.851Z,7.70
2023-10-13T14:52:05.436Z,7.47
2023-10-13T14:54:36.131Z,8.52
2023-10-13T14:57:04.452Z,8.32
2023-10-13T14:59:34.722Z,7.85
2023-10-13T15:02:05.499Z,7.43
2023-10-13T15:04:35.624Z,8.45
2023-10-13T15:07:03.569Z,8.38
2023-10-13T15:09:31.132Z,7.40
2023-10-13T15:11:58.292Z,8.75
2023-10-13T15:14:25.778Z,9.57
2023-10-13T15:16:58.854Z,8.25
2023-10-13T15:19:26.406Z,8.70
2023-10-13T15:21:55.445Z,8.18
2023-10-13T15:24:28.253Z,8.10
2023-10-13T15:27:03.162Z,8.40
2023-10-13T15:29:37.928Z,7.10
2023-10-13T15:32:27.922Z,6.53
2023-10-13T15:34:56.927Z,7.30
2023-10-13T15:37:27.005Z,8.57
2023-10-13T15:39:54.555Z,7.95
2023-10-13T15:42:22.142Z,6.85
2023-10-13T15:44:51.341Z,7.97
2023-10-13T15:49:49.149Z,6.47
2023-10-13T15:52:16.987Z,7.00
2023-10-13T15:54:44.380Z,6.82
2023-10-13T15:57:17.477Z,7.22
2023-10-13T15:59:47.101Z,7.32
2023-10-13T16:02:17.805Z,8.50
2023-10-13T16:04:45.966Z,8.38
2023-10-13T16:07:13.372Z,11.25
2023-10-13T16:09:40.611Z,9.73
2023-10-13T16:12:11.751Z,10.05
2023-10-13T16:14:39.089Z,7.82
2023-10-13T16:17:09.785Z,6.68
2023-10-13T16:19:37.727Z,7.78
2023-10-13T16:22:04.945Z,7.20
2023-10-13T16:24:34.341Z,8.60
2023-10-13T16:27:01.662Z,6.93
2023-10-13T16:29:32.345Z,7.40
2023-10-13T16:32:00.399Z,6.13
2023-10-13T16:34:27.671Z,6.05
2023-10-13T16:36:56.492Z,5.90
2023-10-13T16:39:24.278Z,6.20
2023-10-13T16:41:53.237Z,7.72
2023-10-13T16:44:26.551Z,6.45
2023-10-13T16:46:57.997Z,6.15
2023-10-13T16:49:26.245Z,6.45
2023-10-13T16:51:54.161Z,6.22
2023-10-13T16:54:22.501Z,6.25
2023-10-13T16:56:51.878Z,5.63
2023-10-13T16:59:19.214Z,5.80
2023-10-13T17:01:46.991Z,7.18
2023-10-13T17:04:17.161Z,6.93
2023-10-13T17:06:44.709Z,6.60
2023-10-13T17:09:12.741Z,6.22
2023-10-13T17:11:44.300Z,7.20
2023-10-13T17:14:11.504Z,5.38
2023-10-13T17:16:38.754Z,4.57
2023-10-13T17:19:06.796Z,5.90
2023-10-13T17:21:34.063Z,5.95
2023-10-13T17:24:04.730Z,8.25
2023-10-13T17:26:32.202Z,5.10
2023-10-13T17:28:59.939Z,5.88
2023-10-13T17:31:28.169Z,5.07
2023-10-13T17:33:59.434Z,5.28
2023-10-13T17:36:30.815Z,4.63
2023-10-13T17:38:58.602Z,4.85
2023-10-13T17:41:26.589Z,6.10
2023-10-13T17:43:54.280Z,5.85
2023-10-13T17:46:23.963Z,5.57
2023-10-13T17:48:55.555Z,5.55
2023-10-13T17:51:24.443Z,5.13
2023-10-13T17:53:53.667Z,5.22
2023-10-13T17:56:21.040Z,5.43
2023-10-13T17:58:48.662Z,5.35
2023-10-13T18:01:22.998Z,5.50
2023-10-13T18:03:53.009Z,5.32
2023-10-13T18:06:22.168Z,5.10
2023-10-13T18:08:51.302Z,4.60
2023-10-13T18:11:19.579Z,5.28
2023-10-13T18:13:49.077Z,4.70
2023-10-13T18:16:17.842Z,5.07
2023-10-13T18:18:45.489Z,5.63
2023-10-13T18:21:13.668Z,6.05
2023-10-13T18:23:41.443Z,4.63
2023-10-13T18:26:08.760Z,4.78
2023-10-13T18:28:36.941Z,6.78
2023-10-13T18:31:11.964Z,6.40
2023-10-13T18:33:42.760Z,7.95
2023-10-13T18:36:25.320Z,5.88
2023-10-13T18:38:53.150Z,4.38
2023-10-13T18:41:23.005Z,5.13
2023-10-13T18:43:52.954Z,5.18
2023-10-13T18:46:26.323Z,5.60
2023-10-13T18:48:58.528Z,5.72
2023-10-13T18:51:26.939Z,6.60
2023-10-13T18:53:57.661Z,5.53
2023-10-13T18:56:25.271Z,5.93
2023-10-13T18:58:56.385Z,6.18
2023-10-13T19:01:26.373Z,4.90
2023-10-13T19:03:56.007Z,4.97
2023-10-13T19:06:23.759Z,4.70
2023-10-13T19:08:53.792Z,4.53
2023-10-13T19:11:21.902Z,3.90
2023-10-13T19:13:53.730Z,5.00
2023-10-13T19:16:26.742Z,3.88
2023-10-13T19:18:54.982Z,4.88
2023-10-13T19:21:22.421Z,5.03
2023-10-13T19:23:51.380Z,5.53
2023-10-13T19:26:25.256Z,4.97
2023-10-13T19:28:56.179Z,5.85
2023-10-13T19:31:30.737Z,5.15
2023-10-13T19:34:03.331Z,6.22
2023-10-13T19:36:34.964Z,6.07
2023-10-13T19:39:08.311Z,7.18
2023-10-13T19:41:37.624Z,6.22
2023-10-13T19:44:05.911Z,10.88
2023-10-13T19:46:36.668Z,11.88
2023-10-13T19:49:04.718Z,9.35
2023-10-13T19:51:33.026Z,10.93
2023-10-13T19:54:04.625Z,7.10
2023-10-13T19:56:33.223Z,9.38
2023-10-13T19:59:03.721Z,8.23
2023-10-13T20:01:35.353Z,6.50
2023-10-13T20:04:07.755Z,7.07
2023-10-13T20:06:36.724Z,7.15
2023-10-13T20:09:10.715Z,5.47
2023-10-13T20:11:38.297Z,4.88
2023-10-13T20:14:05.855Z,6.93
2023-10-13T20:16:33.092Z,10.82
2023-10-13T20:19:00.573Z,9.43
2023-10-13T20:21:29.469Z,6.60
2023-10-13T20:24:00.635Z,10.48
2023-10-13T20:26:30.093Z,18.52
2023-10-13T20:28:57.982Z,7.20
2023-10-13T20:31:25.750Z,5.75
2023-10-13T20:33:55.879Z,6.35
2023-10-13T20:36:26.726Z,4.88
2023-10-13T20:38:54.124Z,5.82
2023-10-13T20:41:21.390Z,5.72
2023-10-13T20:43:53.355Z,6.78
2023-10-13T20:46:23.402Z,7.00
2023-10-13T20:48:50.746Z,5.65
2023-10-13T20:51:18.036Z,7.35
2023-10-13T20:53:47.918Z,6.38
2023-10-13T20:56:18.222Z,5.90
2023-10-13T20:58:49.537Z,6.10
2023-10-13T21:01:16.922Z,6.80
2023-10-13T21:03:44.733Z,6.00
2023-10-13T21:06:12.452Z,5.53
2023-10-13T21:08:46.952Z,6.65
2023-10-13T21:11:14.831Z,6.47
2023-10-13T21:13:42.761Z,6.38
2023-10-13T21:16:11.532Z,7.32
2023-10-13T21:18:44.257Z,6.35
2023-10-13T21:21:22.119Z,7.68
2023-10-13T21:23:50.707Z,7.22
2023-10-13T21:26:25.334Z,7.00
2023-10-13T21:28:52.735Z,7.78
2023-10-13T21:31:21.559Z,6.78
2023-10-13T21:33:50.842Z,6.25
2023-10-13T21:36:18.156Z,6.35
2023-10-13T21:38:51.654Z,6.88
2023-10-13T21:41:22.634Z,12.80
2023-10-13T21:43:54.569Z,6.05
2023-10-13T21:46:24.019Z,6.90
2023-10-13T21:48:55.014Z,6.95
2023-10-13T21:51:26.119Z,7.57
2023-10-13T21:53:53.908Z,5.55
2023-10-13T21:56:25.365Z,5.90
2023-10-13T21:58:52.782Z,7.15
2023-10-13T22:01:23.559Z,8.07
2023-10-13T22:03:52.924Z,7.32
2023-10-13T22:06:24.170Z,13.45
2023-10-13T22:08:51.699Z,6.78
2023-10-13T22:11:22.241Z,5.50
2023-10-13T22:13:50.088Z,6.45
2023-10-13T22:16:18.875Z,6.07
2023-10-13T22:18:49.961Z,5.78
2023-10-13T22:21:20.234Z,6.70
2023-10-13T22:23:48.061Z,6.57
2023-10-13T22:26:16.768Z,6.00
2023-10-13T22:28:48.229Z,5.68
2023-10-13T22:31:18.277Z,4.70
2023-10-13T22:33:46.319Z,5.82
2023-10-13T22:36:13.642Z,7.85
2023-10-13T22:38:42.037Z,6.05
2023-10-13T22:41:13.281Z,6.40
2023-10-13T22:43:41.037Z,6.25
2023-10-13T22:46:08.789Z,5.40
2023-10-13T22:48:36.439Z,5.03
2023-10-13T22:51:08.454Z,10.73
2023-10-13T22:53:37.277Z,11.02
2023-10-13T22:56:06.008Z,9.75
2023-10-13T22:58:38.209Z,11.50
2023-10-13T23:01:05.832Z,10.88
2023-10-13T23:03:36.510Z,10.50
2023-10-13T23:06:04.637Z,10.38
2023-10-13T23:08:38.825Z,8.27
2023-10-13T23:11:16.541Z,10.55
2023-10-13T23:13:52.400Z,8.85
2023-10-13T23:16:24.649Z,8.65
2023-10-13T23:19:01.709Z,7.25
2023-10-13T23:21:29.391Z,7.50
2023-10-13T23:23:57.612Z,6.88
2023-10-13T23:26:26.909Z,6.07
2023-10-13T23:28:54.785Z,6.18
2023-10-13T23:31:24.933Z,7.00
2023-10-13T23:33:54.747Z,5.95
2023-10-13T23:36:22.732Z,6.97
2023-10-13T23:39:10.113Z,6.55
2023-10-13T23:41:41.817Z,9.40
2023-10-13T23:44:16.010Z,6.88
2023-10-13T23:46:44.638Z,9.77
2023-10-13T23:49:19.839Z,11.60
2023-10-13T23:51:54.821Z,8.65
2023-10-13T23:54:22.669Z,10.00
2023-10-13T23:56:49.989Z,8.80
2023-10-13T23:59:40.970Z,8.10
